createdAt,value
2022-09-13T00:02:17.565Z,100.00
2022-09-13T00:04:50.714Z,100.00
2022-09-13T00:07:37.451Z,100.00
2022-09-13T00:10:12.338Z,100.00
2022-09-13T00:13:00.462Z,100.00
2022-09-13T00:15:41.497Z,100.00
2022-09-13T00:18:35.471Z,100.00
2022-09-13T00:21:25.489Z,100.00
2022-09-13T00:24:07.492Z,100.00
2022-09-13T00:27:01.481Z,100.00
2022-09-13T00:29:48.486Z,100.00
2022-09-13T00:32:21.555Z,100.00
2022-09-13T00:35:09.494Z,100.00
2022-09-13T00:37:42.564Z,100.00
2022-09-13T00:40:29.566Z,100.00
2022-09-13T00:43:02.562Z,100.00
2022-09-13T00:45:49.532Z,100.00
2022-09-13T00:48:30.975Z,100.00
2022-09-13T00:51:18.476Z,100.00
2022-09-13T00:53:56.621Z,100.00
2022-09-13T00:56:50.486Z,100.00
2022-09-13T00:59:29.541Z,100.00
2022-09-13T01:02:16.563Z,100.00
2022-09-13T01:04:57.494Z,100.00
2022-09-13T01:07:51.499Z,100.00
2022-09-13T01:10:38.485Z,100.00
2022-09-13T01:13:29.581Z,100.00
2022-09-13T01:16:16.565Z,100.00
2022-09-13T01:18:49.548Z,100.00
2022-09-13T01:22:07.500Z,100.00
2022-09-13T01:25:05.489Z,100.00
2022-09-13T01:28:08.524Z,100.00
2022-09-13T01:31:10.497Z,100.00
2022-09-13T01:33:57.586Z,100.00
2022-09-13T01:37:05.500Z,100.00
2022-09-13T01:39:55.741Z,100.00
2022-09-13T01:42:54.502Z,100.00
2022-09-13T01:45:46.579Z,100.00
2022-09-13T01:49:09.524Z,100.00
2022-09-13T01:52:12.529Z,100.00
2022-09-13T01:54:48.592Z,100.00
2022-09-13T01:57:41.522Z,100.00
2022-09-13T02:00:26.522Z,100.00
2022-09-13T02:04:03.507Z,100.00
2022-09-13T02:06:59.541Z,100.00
2022-09-13T02:09:36.596Z,100.00
2022-09-13T02:12:28.488Z,100.00
2022-09-13T02:15:37.532Z,100.00
2022-09-13T02:18:40.540Z,100.00
2022-09-13T02:21:42.615Z,100.00
2022-09-13T02:24:49.547Z,100.00
2022-09-13T02:27:39.541Z,100.00
2022-09-13T02:30:15.590Z,100.00
2022-09-13T02:33:13.544Z,100.00
2022-09-13T02:36:07.522Z,100.00
2022-09-13T02:39:02.550Z,100.00
2022-09-13T02:42:12.461Z,100.00
2022-09-13T02:45:09.545Z,100.00
2022-09-13T02:48:25.529Z,100.00
2022-09-13T02:51:29.564Z,100.00
2022-09-13T02:54:29.543Z,100.00
2022-09-13T02:57:20.560Z,100.00
2022-09-13T03:00:07.543Z,100.00
2022-09-13T03:02:41.847Z,100.00
2022-09-13T03:05:28.539Z,100.00
2022-09-13T03:08:09.540Z,100.00
2022-09-13T03:11:29.560Z,100.00
2022-09-13T03:14:22.550Z,100.00
2022-09-13T03:17:37.574Z,100.00
2022-09-13T03:20:46.551Z,100.00
2022-09-13T03:23:36.594Z,100.00
2022-09-13T03:26:31.626Z,100.00
2022-09-13T03:29:30.590Z,100.00
2022-09-13T03:32:28.570Z,100.00
2022-09-13T03:35:27.550Z,100.00
2022-09-13T03:38:15.573Z,100.00
2022-09-13T03:41:32.560Z,100.00
2022-09-13T03:44:30.562Z,100.00
2022-09-13T03:47:18.550Z,100.00
2022-09-13T03:49:52.570Z,100.00
2022-09-13T03:52:42.236Z,100.00
2022-09-13T03:55:25.548Z,100.00
2022-09-13T03:58:19.567Z,100.00
2022-09-13T04:01:06.614Z,100.00
2022-09-13T04:03:39.641Z,100.00
2022-09-13T04:06:26.579Z,100.00
2022-09-13T04:09:07.715Z,100.00
2022-09-13T04:11:54.579Z,100.00
2022-09-13T04:14:28.291Z,100.00
2022-09-13T04:17:14.595Z,100.00
2022-09-13T04:19:48.695Z,100.00
2022-09-13T04:22:35.588Z,100.00
2022-09-13T04:25:15.560Z,100.00
2022-09-13T04:28:04.575Z,100.00
2022-09-13T04:30:44.568Z,100.00
2022-09-13T04:33:31.592Z,100.00
2022-09-13T04:36:12.584Z,100.00
2022-09-13T04:38:59.578Z,100.00
2022-09-13T04:41:41.595Z,100.00
2022-09-13T04:44:30.587Z,100.00
2022-09-13T04:47:03.668Z,100.00
2022-09-13T04:49:50.589Z,100.00
2022-09-13T04:52:26.657Z,100.00
2022-09-13T04:55:13.609Z,100.00
2022-09-13T04:57:47.654Z,100.00
2022-09-13T05:00:34.591Z,100.00
2022-09-13T05:03:08.676Z,100.00
2022-09-13T05:05:55.583Z,100.00
2022-09-13T05:08:35.602Z,100.00
2022-09-13T05:11:29.594Z,100.00
2022-09-13T05:14:24.601Z,100.00
2022-09-13T05:17:11.598Z,100.00
2022-09-13T05:19:44.679Z,100.00
2022-09-13T05:22:31.597Z,100.00
2022-09-13T05:25:11.600Z,100.00
2022-09-13T05:27:58.620Z,100.00
2022-09-13T05:30:34.742Z,100.00
2022-09-13T05:33:21.638Z,100.00
2022-09-13T05:35:54.685Z,100.00
2022-09-13T05:38:41.605Z,100.00
2022-09-13T05:41:21.636Z,100.00
2022-09-13T05:44:15.587Z,100.00
2022-09-13T05:47:02.612Z,100.00
2022-09-13T05:49:45.990Z,100.00
2022-09-13T05:52:42.616Z,100.00
2022-09-13T05:55:15.699Z,100.00
2022-09-13T05:58:02.604Z,100.00
2022-09-13T06:00:36.710Z,100.00
2022-09-13T06:03:23.614Z,100.00
2022-09-13T06:05:56.859Z,100.00
2022-09-13T06:08:43.613Z,100.00
2022-09-13T06:11:20.171Z,100.00
2022-09-13T06:14:06.639Z,100.00
2022-09-13T06:16:39.687Z,100.00
2022-09-13T06:19:33.639Z,100.00
2022-09-13T06:22:27.622Z,100.00
2022-09-13T06:25:15.647Z,100.00
2022-09-13T06:27:55.646Z,100.00
2022-09-13T06:30:49.618Z,100.00
2022-09-13T06:33:36.630Z,100.00
2022-09-13T06:36:20.640Z,100.00
2022-09-13T06:39:14.651Z,100.00
2022-09-13T06:42:08.640Z,100.00
2022-09-13T06:44:55.635Z,100.00
2022-09-13T06:47:28.706Z,100.00
2022-09-13T06:50:15.616Z,100.00
2022-09-13T06:52:55.637Z,100.00
2022-09-13T06:55:49.653Z,100.00
2022-09-13T06:58:38.685Z,100.00
2022-09-13T07:01:22.750Z,100.00
2022-09-13T07:04:21.655Z,100.00
2022-09-13T07:07:01.675Z,100.00
2022-09-13T07:09:45.990Z,100.00
2022-09-13T07:12:25.663Z,100.00
2022-09-13T07:15:05.662Z,100.00
2022-09-13T07:17:38.767Z,100.00
2022-09-13T07:20:25.607Z,100.00
2022-09-13T07:23:05.648Z,100.00
2022-09-13T07:26:11.673Z,100.00
2022-09-13T07:29:01.649Z,100.00
2022-09-13T07:31:40.756Z,100.00
2022-09-13T07:34:29.665Z,99.47
2022-09-13T07:37:09.666Z,99.81
2022-09-13T07:39:56.709Z,99.42
2022-09-13T07:42:36.662Z,99.25
2022-09-13T07:45:30.679Z,99.78
2022-09-13T07:48:24.655Z,99.44
2022-09-13T07:51:12.692Z,100.00
2022-09-13T07:53:57.136Z,99.91
2022-09-13T07:56:53.683Z,99.98
2022-09-13T07:59:40.686Z,99.73
2022-09-13T08:02:15.775Z,99.88
2022-09-13T08:05:02.714Z,99.79
2022-09-13T08:07:42.692Z,99.40
2022-09-13T08:10:36.681Z,98.88
2022-09-13T08:13:30.686Z,98.49
2022-09-13T08:16:17.735Z,97.93
2022-09-13T08:18:52.766Z,98.33
2022-09-13T08:21:46.661Z,98.33
2022-09-13T08:24:27.004Z,98.32
2022-09-13T08:27:13.663Z,97.69
2022-09-13T08:29:53.698Z,99.07
2022-09-13T08:32:47.687Z,98.57
2022-09-13T08:35:42.707Z,98.29
2022-09-13T08:38:29.688Z,96.91
2022-09-13T08:41:06.821Z,95.68
2022-09-13T08:44:08.696Z,95.76
2022-09-13T08:46:52.830Z,93.88
2022-09-13T08:49:50.714Z,93.80
2022-09-13T08:52:41.843Z,93.84
2022-09-13T08:55:36.705Z,93.93
2022-09-13T08:58:42.709Z,94.41
2022-09-13T09:02:27.754Z,95.23
2022-09-13T09:05:00.775Z,93.53
2022-09-13T09:07:52.705Z,92.13
2022-09-13T09:10:33.875Z,91.04
2022-09-13T09:13:43.706Z,90.49
2022-09-13T09:16:51.719Z,87.96
2022-09-13T09:19:54.718Z,87.83
2022-09-13T09:22:42.712Z,88.95
2022-09-13T09:25:18.793Z,89.29
2022-09-13T09:28:06.730Z,88.83
2022-09-13T09:31:10.807Z,87.39
2022-09-13T09:34:16.742Z,87.54
2022-09-13T09:37:03.842Z,87.33
2022-09-13T09:39:50.767Z,87.84
2022-09-13T09:42:38.727Z,86.12
2022-09-13T09:45:37.745Z,85.70
2022-09-13T09:48:36.744Z,85.13
2022-09-13T09:51:33.719Z,85.01
2022-09-13T09:54:20.734Z,85.68
2022-09-13T09:57:08.715Z,84.48
2022-09-13T09:59:55.771Z,84.96
2022-09-13T10:02:28.882Z,83.18
2022-09-13T10:05:16.737Z,83.35
2022-09-13T10:07:57.904Z,81.79
2022-09-13T10:10:57.762Z,82.45
2022-09-13T10:13:51.746Z,81.78
2022-09-13T10:16:38.769Z,80.03
2022-09-13T10:19:32.841Z,78.45
2022-09-13T10:22:19.762Z,79.08
2022-09-13T10:24:54.084Z,79.48
2022-09-13T10:27:49.740Z,79.07
2022-09-13T10:30:37.889Z,79.69
2022-09-13T10:33:41.757Z,80.58
2022-09-13T10:36:51.238Z,78.72
2022-09-13T10:39:32.762Z,79.74
2022-09-13T10:42:16.760Z,81.28
2022-09-13T10:44:52.823Z,80.13
2022-09-13T10:47:44.775Z,78.83
2022-09-13T10:50:37.831Z,79.90
2022-09-13T10:53:45.763Z,81.45
2022-09-13T10:56:33.071Z,80.19
2022-09-13T10:59:28.772Z,80.77
2022-09-13T11:02:30.080Z,80.01
2022-09-13T11:05:28.794Z,80.33
2022-09-13T11:08:38.752Z,81.69
2022-09-13T11:11:38.758Z,81.12
2022-09-13T11:15:04.779Z,78.24
2022-09-13T11:17:47.786Z,78.83
2022-09-13T11:21:03.782Z,79.08
2022-09-13T11:24:05.769Z,78.62
2022-09-13T11:27:03.775Z,79.16
2022-09-13T11:30:08.760Z,80.61
2022-09-13T11:33:18.785Z,81.15
2022-09-13T11:36:11.301Z,80.61
2022-09-13T11:39:32.795Z,79.49
2022-09-13T11:42:24.868Z,79.38
2022-09-13T11:45:22.208Z,80.46
2022-09-13T11:48:25.790Z,78.19
2022-09-13T11:51:28.806Z,78.74
2022-09-13T11:54:11.799Z,79.07
2022-09-13T11:57:17.819Z,81.00
2022-09-13T12:00:16.803Z,80.43
2022-09-13T12:03:16.151Z,80.57
2022-09-13T12:06:15.806Z,81.55
2022-09-13T12:09:08.804Z,80.22
2022-09-13T12:11:49.992Z,79.04
2022-09-13T12:14:43.794Z,79.87
2022-09-13T12:17:35.889Z,80.28
2022-09-13T12:20:44.806Z,79.57
2022-09-13T12:23:27.904Z,81.04
2022-09-13T12:26:28.830Z,80.24
2022-09-13T12:29:06.882Z,80.97
2022-09-13T12:31:53.838Z,81.03
2022-09-13T12:34:34.887Z,80.62
2022-09-13T12:37:55.840Z,80.74
2022-09-13T12:41:08.881Z,81.11
2022-09-13T12:44:20.826Z,80.41
2022-09-13T12:47:19.828Z,80.98
2022-09-13T12:50:47.136Z,79.86
2022-09-13T12:53:48.952Z,78.42
2022-09-13T12:56:58.862Z,78.08
2022-09-13T13:00:24.817Z,77.16
2022-09-13T13:03:13.019Z,80.33
2022-09-13T13:06:16.821Z,79.21
2022-09-13T13:09:04.876Z,77.68
2022-09-13T13:12:00.852Z,78.80
2022-09-13T13:14:47.836Z,76.23
2022-09-13T13:17:49.001Z,77.09
2022-09-13T13:20:54.830Z,76.58
2022-09-13T13:23:52.856Z,76.63
2022-09-13T13:27:09.840Z,75.89
2022-09-13T13:30:48.864Z,75.18
2022-09-13T13:33:38.115Z,74.75
2022-09-13T13:36:34.924Z,74.85
2022-09-13T13:39:33.862Z,74.23
2022-09-13T13:42:38.437Z,73.47
2022-09-13T13:45:28.866Z,72.34
2022-09-13T13:48:15.938Z,72.24
2022-09-13T13:51:18.863Z,73.20
2022-09-13T13:54:20.953Z,74.05
2022-09-13T13:57:09.723Z,74.98
2022-09-13T13:59:51.855Z,74.12
2022-09-13T14:03:04.880Z,74.07
2022-09-13T14:06:37.847Z,75.76
2022-09-13T14:10:01.869Z,74.60
2022-09-13T14:12:50.940Z,75.17
2022-09-13T14:15:53.869Z,75.23
2022-09-13T14:18:44.871Z,74.64
2022-09-13T14:21:39.879Z,74.73
2022-09-13T14:24:30.867Z,74.42
2022-09-13T14:27:09.350Z,74.98
2022-09-13T14:30:07.889Z,74.68
2022-09-13T14:32:53.971Z,74.61
2022-09-13T14:35:47.903Z,76.47
2022-09-13T14:38:42.938Z,77.25
2022-09-13T14:41:46.886Z,78.88
2022-09-13T14:44:34.873Z,77.63
2022-09-13T14:47:26.909Z,79.68
2022-09-13T14:50:27.890Z,80.10
2022-09-13T14:53:29.907Z,78.94
2022-09-13T14:56:38.882Z,79.16
2022-09-13T14:59:57.950Z,77.87
2022-09-13T15:02:46.885Z,76.87
2022-09-13T15:05:23.956Z,79.73
2022-09-13T15:08:53.904Z,80.26
2022-09-13T15:11:40.987Z,78.09
2022-09-13T15:14:45.921Z,79.41
2022-09-13T15:17:19.971Z,77.75
2022-09-13T15:20:18.899Z,79.05
2022-09-13T15:23:12.899Z,80.10
2022-09-13T15:26:01.924Z,79.40
2022-09-13T15:28:45.914Z,79.41
2022-09-13T15:31:44.962Z,79.16
2022-09-13T15:34:33.918Z,80.68
2022-09-13T15:37:26.894Z,82.45
2022-09-13T15:40:34.970Z,82.16
2022-09-13T15:43:28.954Z,83.17
2022-09-13T15:46:27.980Z,83.30
2022-09-13T15:49:23.918Z,83.12
2022-09-13T15:52:03.031Z,83.41
2022-09-13T15:54:49.943Z,83.18
2022-09-13T15:57:28.990Z,84.04
2022-09-13T16:00:22.935Z,84.22
2022-09-13T16:03:02.919Z,84.41
2022-09-13T16:05:56.949Z,84.63
2022-09-13T16:08:50.934Z,85.39
2022-09-13T16:11:37.946Z,85.52
2022-09-13T16:14:10.996Z,85.84
2022-09-13T16:16:58.923Z,86.36
2022-09-13T16:19:32.020Z,86.56
2022-09-13T16:22:25.928Z,86.94
2022-09-13T16:25:19.937Z,87.59
2022-09-13T16:28:13.955Z,86.93
2022-09-13T16:31:08.061Z,86.61
2022-09-13T16:33:54.974Z,87.01
2022-09-13T16:36:28.961Z,88.23
2022-09-13T16:39:16.004Z,88.23
2022-09-13T16:41:49.115Z,88.87
2022-09-13T16:44:35.964Z,89.19
2022-09-13T16:47:09.067Z,89.35
2022-09-13T16:49:55.942Z,89.66
2022-09-13T16:52:29.250Z,90.48
2022-09-13T16:55:15.947Z,90.12
2022-09-13T16:57:50.280Z,90.58
2022-09-13T17:00:36.944Z,91.26
2022-09-13T17:03:17.015Z,91.71
2022-09-13T17:06:14.976Z,91.65
2022-09-13T17:09:07.937Z,91.67
2022-09-13T17:11:53.973Z,92.06
2022-09-13T17:14:40.971Z,91.92
2022-09-13T17:17:14.063Z,92.37
2022-09-13T17:20:08.004Z,92.36
2022-09-13T17:23:01.988Z,92.87
2022-09-13T17:25:52.986Z,93.34
2022-09-13T17:28:26.047Z,93.71
2022-09-13T17:31:13.025Z,94.11
2022-09-13T17:33:46.161Z,94.00
2022-09-13T17:36:32.978Z,94.34
2022-09-13T17:39:06.115Z,94.48
2022-09-13T17:41:54.970Z,94.85
2022-09-13T17:44:28.093Z,95.29
2022-09-13T17:47:14.978Z,95.67
2022-09-13T17:49:55.000Z,95.61
2022-09-13T17:52:48.989Z,96.49
2022-09-13T17:55:35.997Z,96.41
2022-09-13T17:58:15.980Z,96.20
2022-09-13T18:01:14.091Z,96.79
2022-09-13T18:03:53.993Z,96.69
2022-09-13T18:06:42.000Z,96.99
2022-09-13T18:09:17.129Z,97.32
2022-09-13T18:12:03.990Z,96.89
2022-09-13T18:14:37.045Z,97.07
2022-09-13T18:17:24.000Z,97.54
2022-09-13T18:19:57.092Z,97.00
2022-09-13T18:22:44.003Z,97.43
2022-09-13T18:25:17.137Z,97.17
2022-09-13T18:28:04.021Z,97.75
2022-09-13T18:30:44.152Z,98.09
2022-09-13T18:33:32.004Z,97.77
2022-09-13T18:36:15.999Z,98.23
2022-09-13T18:39:10.994Z,98.36
2022-09-13T18:41:58.021Z,98.85
2022-09-13T18:44:33.664Z,98.86
2022-09-13T18:47:22.003Z,98.46
2022-09-13T18:49:55.149Z,98.27
2022-09-13T18:52:42.007Z,98.68
2022-09-13T18:55:15.243Z,98.43
2022-09-13T18:58:02.022Z,98.76
2022-09-13T19:00:42.029Z,98.96
2022-09-13T19:03:36.077Z,98.96
2022-09-13T19:06:30.021Z,99.08
2022-09-13T19:09:05.275Z,99.49
2022-09-13T19:11:54.015Z,99.58
2022-09-13T19:14:36.053Z,99.83
2022-09-13T19:17:30.039Z,99.87
2022-09-13T19:20:24.033Z,100.00
2022-09-13T19:23:11.031Z,100.00
2022-09-13T19:25:44.199Z,100.00
2022-09-13T19:28:31.029Z,100.00
2022-09-13T19:31:20.131Z,100.00
2022-09-13T19:34:15.078Z,100.00
2022-09-13T19:37:09.062Z,100.00
2022-09-13T19:40:03.141Z,100.00
2022-09-13T19:42:50.042Z,100.00
2022-09-13T19:45:23.335Z,100.00
2022-09-13T19:48:37.782Z,100.00
2022-09-13T19:51:08.199Z,100.00
2022-09-13T19:53:59.062Z,100.00
2022-09-13T19:56:35.163Z,100.00
2022-09-13T19:59:24.041Z,100.00
2022-09-13T20:01:57.300Z,100.00
2022-09-13T20:04:44.107Z,100.00
2022-09-13T20:07:17.121Z,100.00
2022-09-13T20:10:04.063Z,100.00
2022-09-13T20:12:37.766Z,100.00
2022-09-13T20:15:24.053Z,100.00
2022-09-13T20:18:05.037Z,100.00
2022-09-13T20:20:55.062Z,100.00
2022-09-13T20:23:35.059Z,100.00
2022-09-13T20:26:32.071Z,100.00
2022-09-13T20:29:20.055Z,100.00
2022-09-13T20:31:55.410Z,100.00
2022-09-13T20:34:42.056Z,100.00
2022-09-13T20:37:15.253Z,100.00
2022-09-13T20:40:02.103Z,100.00
2022-09-13T20:42:37.299Z,100.00
2022-09-13T20:45:24.092Z,100.00
2022-09-13T20:48:04.058Z,100.00
2022-09-13T20:50:58.065Z,100.00
2022-09-13T20:53:46.073Z,100.00
2022-09-13T20:56:24.742Z,100.00
2022-09-13T20:59:11.073Z,100.00
2022-09-13T21:01:44.225Z,100.00
2022-09-13T21:04:31.096Z,100.00
2022-09-13T21:07:29.063Z,100.00
2022-09-13T21:10:23.068Z,100.00
2022-09-13T21:13:10.087Z,100.00
2022-09-13T21:15:50.065Z,100.00
2022-09-13T21:18:45.102Z,100.00
2022-09-13T21:21:36.091Z,100.00
2022-09-13T21:24:18.148Z,100.00
2022-09-13T21:27:12.218Z,100.00
2022-09-13T21:30:06.082Z,100.00
2022-09-13T21:33:00.109Z,100.00
2022-09-13T21:35:54.095Z,100.00
2022-09-13T21:38:49.177Z,100.00
2022-09-13T21:41:43.077Z,100.00
2022-09-13T21:44:37.116Z,100.00
2022-09-13T21:47:24.093Z,100.00
2022-09-13T21:50:04.120Z,100.00
2022-09-13T21:52:51.113Z,100.00
2022-09-13T21:55:31.095Z,100.00
2022-09-13T21:58:18.141Z,100.00
2022-09-13T22:00:58.170Z,100.00
2022-09-13T22:03:48.116Z,100.00
2022-09-13T22:06:33.159Z,100.00
2022-09-13T22:09:28.115Z,100.00
2022-09-13T22:12:15.071Z,100.00
2022-09-13T22:14:48.602Z,100.00
2022-09-13T22:17:35.117Z,100.00
2022-09-13T22:20:08.190Z,100.00
2022-09-13T22:22:55.121Z,100.00
2022-09-13T22:25:28.176Z,100.00
2022-09-13T22:28:15.114Z,100.00
2022-09-13T22:30:48.210Z,100.00
2022-09-13T22:33:35.122Z,100.00
2022-09-13T22:36:11.340Z,100.00
2022-09-13T22:38:59.114Z,100.00
2022-09-13T22:41:35.422Z,100.00
2022-09-13T22:44:22.127Z,100.00
2022-09-13T22:46:55.262Z,100.00
2022-09-13T22:49:42.124Z,100.00
2022-09-13T22:52:15.218Z,100.00
2022-09-13T22:55:02.141Z,100.00
2022-09-13T22:57:35.248Z,100.00
2022-09-13T23:00:22.119Z,100.00
2022-09-13T23:02:55.224Z,100.00
2022-09-13T23:05:35.128Z,100.00
2022-09-13T23:08:16.213Z,100.00
2022-09-13T23:10:56.152Z,100.00
2022-09-13T23:13:36.210Z,100.00
2022-09-13T23:16:22.210Z,100.00
2022-09-13T23:19:03.138Z,100.00
2022-09-13T23:21:40.225Z,100.00
2022-09-13T23:24:27.151Z,100.00
2022-09-13T23:27:01.704Z,100.00
2022-09-13T23:29:48.140Z,100.00
2022-09-13T23:32:28.152Z,100.00
2022-09-13T23:35:22.162Z,100.00
2022-09-13T23:38:17.174Z,100.00
2022-09-13T23:41:11.168Z,100.00
2022-09-13T23:43:59.168Z,100.00
2022-09-13T23:46:32.208Z,100.00
2022-09-13T23:49:19.157Z,100.00
2022-09-13T23:51:59.161Z,100.00
2022-09-13T23:54:53.174Z,100.00
2022-09-13T23:57:40.148Z,100.00
